Time;durP1;ratioP1;P1;durP2;ratioP2;P2;SDS_P1;SDS_P2;PMS_P1;PMS_P2;Temp;Humidity;BMP_temperature;BMP_pressure;BME280_temperature;BME280_humidity;BME280_pressure;Samples;Min_cycle;Max_cycle;Signal;HPM_P1;HPM_P2
2022/05/25 00:02:21;;;;;;;9.85;5.25;;;9.00;99.90;;;;;;5001967;28;20057;-70
2022/05/25 00:04:47;;;;;;;7.75;5.20;;;9.00;99.90;;;;;;4982263;28;20061;-71
2022/05/25 00:07:13;;;;;;;8.13;5.28;;;9.00;99.90;;;;;;4977752;28;20369;-70
2022/05/25 00:09:39;;;;;;;8.85;5.75;;;9.00;99.90;;;;;;4969540;28;20046;-70
2022/05/25 00:12:07;;;;;;;11.38;5.75;;;8.90;99.90;;;;;;4981416;28;20399;-71
2022/05/25 00:14:33;;;;;;;10.00;6.10;;;8.90;99.90;;;;;;4969474;28;20448;-70
2022/05/25 00:16:59;;;;;;;13.13;5.60;;;9.00;99.90;;;;;;4990430;28;20392;-70
2022/05/25 00:22:09;;;;;;;11.63;6.35;;;8.90;99.90;;;;;;4977929;28;20530;-71
2022/05/25 00:24:36;;;;;;;8.60;5.82;;;8.90;99.90;;;;;;5018937;28;20061;-71
2022/05/25 00:27:02;;;;;;;13.00;6.78;;;8.90;99.90;;;;;;5004238;28;20598;-71
2022/05/25 00:29:28;;;;;;;10.80;6.18;;;8.80;99.90;;;;;;4980172;28;20046;-70
2022/05/25 00:31:53;;;;;;;9.38;6.05;;;8.80;99.90;;;;;;4983261;28;20051;-71
2022/05/25 00:34:19;;;;;;;11.02;6.63;;;8.80;99.90;;;;;;4988140;28;20116;-71
2022/05/25 00:36:45;;;;;;;10.43;6.30;;;8.80;99.90;;;;;;4989603;28;20094;-71
2022/05/25 00:39:11;;;;;;;11.60;7.30;;;8.80;99.90;;;;;;4987777;28;20035;-71
2022/05/25 00:41:37;;;;;;;10.77;6.57;;;8.80;99.90;;;;;;4986679;28;20047;-71
2022/05/25 00:44:04;;;;;;;9.45;6.82;;;8.70;99.90;;;;;;4988371;28;20118;-71
2022/05/25 00:46:32;;;;;;;10.32;7.03;;;8.70;99.90;;;;;;4987727;28;20039;-71
2022/05/25 00:49:05;;;;;;;12.00;6.63;;;8.70;99.90;;;;;;4986953;28;20717;-69
2022/05/25 00:51:54;;;;;;;9.30;6.30;;;8.70;99.90;;;;;;4986601;28;20113;-71
2022/05/25 00:54:28;;;;;;;12.70;7.93;;;8.70;99.90;;;;;;4984533;28;20061;-71
2022/05/25 00:56:58;;;;;;;11.05;8.38;;;8.70;99.90;;;;;;5019628;28;20045;-71
2022/05/25 00:59:33;;;;;;;12.15;7.72;;;8.70;99.90;;;;;;4988917;28;20523;-70
2022/05/25 01:01:59;;;;;;;11.55;8.07;;;8.70;99.90;;;;;;5022900;28;20141;-71
2022/05/25 01:04:26;;;;;;;12.52;7.78;;;8.70;99.90;;;;;;5003370;28;20488;-71
2022/05/25 01:07:10;;;;;;;9.95;7.32;;;8.70;99.90;;;;;;4991024;28;20046;-71
2022/05/25 01:09:48;;;;;;;11.02;8.07;;;8.90;99.90;;;;;;4988625;28;20043;-71
2022/05/25 01:12:28;;;;;;;12.57;7.82;;;8.70;99.90;;;;;;4983173;28;20534;-71
2022/05/25 01:15:04;;;;;;;12.25;8.75;;;8.70;99.90;;;;;;4984828;28;20653;-70
2022/05/25 01:17:51;;;;;;;16.30;8.70;;;8.70;99.90;;;;;;4990817;28;20105;-70
2022/05/25 01:20:23;;;;;;;12.05;7.68;;;8.70;99.90;;;;;;4979039;28;20105;-70
2022/05/25 01:23:07;;;;;;;13.70;8.77;;;8.70;99.90;;;;;;4988434;28;20055;-70
2022/05/25 01:25:46;;;;;;;12.45;8.27;;;8.70;99.90;;;;;;4989651;28;20046;-70
2022/05/25 01:28:36;;;;;;;13.52;8.38;;;9.10;99.90;;;;;;4972893;28;20081;-70
2022/05/25 01:31:07;;;;;;;13.63;8.90;;;8.70;99.90;;;;;;5012532;28;20050;-72
2022/05/25 01:33:54;;;;;;;13.05;8.98;;;8.70;99.90;;;;;;4973114;28;20105;-71
2022/05/25 01:36:35;;;;;;;13.52;8.73;;;8.80;99.90;;;;;;4986285;28;20526;-70
2022/05/25 01:39:08;;;;;;;13.68;9.13;;;8.70;99.90;;;;;;4998435;28;20334;-71
2022/05/25 01:41:58;;;;;;;13.77;9.15;;;8.80;99.90;;;;;;4989156;28;20404;-71
2022/05/25 01:44:30;;;;;;;14.57;8.73;;;8.70;99.90;;;;;;4990739;28;20057;-71
2022/05/25 01:47:05;;;;;;;13.57;8.98;;;8.70;99.90;;;;;;5023187;28;20050;-71
2022/05/25 01:50:01;;;;;;;15.80;8.90;;;8.70;99.90;;;;;;4996582;28;20078;-71
2022/05/25 01:52:36;;;;;;;13.88;9.07;;;8.70;99.90;;;;;;4989398;28;20050;-71
2022/05/25 01:55:07;;;;;;;15.38;8.93;;;8.70;99.90;;;;;;4990252;28;20046;-71
2022/05/25 01:57:37;;;;;;;14.57;8.82;;;8.70;99.90;;;;;;4987551;28;20043;-71
2022/05/25 02:00:05;;;;;;;17.77;10.25;;;8.70;99.90;;;;;;4983974;28;20447;-71
2022/05/25 02:05:18;;;;;;;18.45;10.43;;;8.70;99.90;;;;;;4989473;28;20532;-70
2022/05/25 02:08:18;;;;;;;12.52;9.13;;;8.70;99.90;;;;;;5003360;28;20427;-71
2022/05/25 02:10:53;;;;;;;15.10;10.75;;;8.70;99.90;;;;;;4999525;28;20042;-70
2022/05/25 02:13:54;;;;;;;16.10;10.75;;;8.70;99.90;;;;;;4970292;28;20396;-70
2022/05/25 02:16:48;;;;;;;12.85;9.57;;;8.70;99.90;;;;;;4971099;28;20145;-71
2022/05/25 02:19:40;;;;;;;14.82;10.88;;;8.70;99.90;;;;;;4964800;28;20046;-70
2022/05/25 02:22:31;;;;;;;18.17;10.07;;;8.70;99.90;;;;;;4973145;28;20415;-70
2022/05/25 02:25:03;;;;;;;17.77;10.50;;;8.70;99.90;;;;;;4990443;28;20415;-70
2022/05/25 02:27:35;;;;;;;14.95;10.60;;;8.60;99.90;;;;;;4986357;28;20050;-70
2022/05/25 02:30:17;;;;;;;18.27;11.57;;;8.60;99.90;;;;;;4988228;28;20419;-70
2022/05/25 02:33:11;;;;;;;17.83;11.18;;;8.60;99.90;;;;;;4988939;28;20038;-71
2022/05/25 02:35:40;;;;;;;19.45;10.70;;;8.60;99.90;;;;;;4951085;28;20146;-71
2022/05/25 02:38:07;;;;;;;16.80;11.02;;;8.60;99.90;;;;;;4970462;28;20047;-70
2022/05/25 02:40:35;;;;;;;17.95;11.60;;;8.60;99.90;;;;;;4974383;28;20498;-71
2022/05/25 02:43:02;;;;;;;20.75;11.55;;;8.60;99.90;;;;;;4989870;28;20078;-71
2022/05/25 02:45:28;;;;;;;19.13;11.93;;;8.60;99.90;;;;;;4990543;28;20483;-71
2022/05/25 02:47:54;;;;;;;15.75;11.35;;;8.60;99.90;;;;;;4993385;28;20055;-71
2022/05/25 02:50:21;;;;;;;18.77;11.77;;;8.60;99.90;;;;;;4987672;28;20070;-71
2022/05/25 02:52:47;;;;;;;21.40;12.88;;;8.60;99.90;;;;;;4988783;28;20042;-71
2022/05/25 02:55:13;;;;;;;17.13;12.25;;;8.60;99.90;;;;;;4989256;28;20050;-71
2022/05/25 02:57:39;;;;;;;18.08;11.75;;;8.60;99.90;;;;;;4987777;28;20080;-71
2022/05/25 03:00:07;;;;;;;21.98;13.23;;;8.50;99.90;;;;;;4972137;28;20105;-71
2022/05/25 03:02:33;;;;;;;20.15;12.98;;;8.50;99.90;;;;;;4969760;28;20134;-70
2022/05/25 03:04:59;;;;;;;20.15;12.65;;;8.50;99.90;;;;;;4974235;28;20046;-70
2022/05/25 03:07:25;;;;;;;21.35;13.50;;;8.50;99.90;;;;;;4977119;28;20466;-70
2022/05/25 03:09:51;;;;;;;19.83;13.25;;;8.50;99.90;;;;;;4986159;28;20490;-71
2022/05/25 03:12:17;;;;;;;22.20;13.48;;;8.50;99.90;;;;;;4987267;28;20133;-71
2022/05/25 03:14:43;;;;;;;21.80;13.40;;;8.40;99.90;;;;;;5001127;28;20113;-71
2022/05/25 03:17:14;;;;;;;22.42;13.00;;;8.50;99.90;;;;;;4966443;28;20038;-70
2022/05/25 03:19:41;;;;;;;20.42;12.82;;;8.40;99.90;;;;;;4982207;28;20084;-71
2022/05/25 03:22:07;;;;;;;22.70;14.02;;;8.40;99.90;;;;;;4980015;28;20062;-70
2022/05/25 03:24:33;;;;;;;20.20;12.82;;;8.40;99.90;;;;;;4968063;28;20065;-70
2022/05/25 03:26:59;;;;;;;21.23;14.02;;;8.40;99.90;;;;;;4970733;28;20050;-70
2022/05/25 03:29:26;;;;;;;20.65;13.50;;;8.40;99.90;;;;;;4973275;28;20141;-70
2022/05/25 03:31:52;;;;;;;22.02;14.95;;;8.40;99.90;;;;;;4971818;28;20047;-71
2022/05/25 03:34:18;;;;;;;22.67;14.13;;;8.40;99.90;;;;;;4968415;28;20137;-70
2022/05/25 03:36:45;;;;;;;21.02;14.57;;;8.40;99.90;;;;;;4976597;28;20046;-70
2022/05/25 03:39:11;;;;;;;23.52;15.00;;;8.50;99.90;;;;;;4971039;28;20042;-70
2022/05/25 03:41:36;;;;;;;22.83;14.30;;;8.50;99.90;;;;;;4980687;28;20148;-70
2022/05/25 03:44:02;;;;;;;22.10;14.55;;;8.50;99.90;;;;;;4974319;28;20057;-70
2022/05/25 03:46:28;;;;;;;23.08;15.77;;;8.50;99.90;;;;;;4988268;28;20133;-70
2022/05/25 03:48:54;;;;;;;20.30;14.85;;;8.50;99.90;;;;;;4986807;28;20154;-70
2022/05/25 03:51:20;;;;;;;20.48;14.43;;;8.60;99.90;;;;;;4989627;28;20042;-70
2022/05/25 03:53:46;;;;;;;21.67;14.52;;;8.60;99.90;;;;;;4986227;28;20128;-70
2022/05/25 03:56:12;;;;;;;22.90;15.70;;;8.80;99.90;;;;;;4970429;28;20185;-70
2022/05/25 03:58:37;;;;;;;23.35;15.40;;;8.60;99.90;;;;;;4980553;28;20125;-70
2022/05/25 04:01:03;;;;;;;20.48;14.82;;;8.70;99.90;;;;;;4974407;28;20109;-70
2022/05/25 04:03:29;;;;;;;21.33;15.20;;;8.70;99.90;;;;;;4985205;28;20123;-71
2022/05/25 04:05:55;;;;;;;21.83;15.00;;;8.70;99.90;;;;;;4996299;28;20507;-70
2022/05/25 04:08:20;;;;;;;23.55;14.02;;;8.70;99.90;;;;;;4995021;28;20034;-71
2022/05/25 04:10:46;;;;;;;22.05;14.73;;;8.80;99.90;;;;;;4998570;28;20044;-70
2022/05/25 04:13:12;;;;;;;23.52;13.90;;;8.80;99.90;;;;;;4997933;28;20150;-70
2022/05/25 04:15:37;;;;;;;20.27;14.43;;;8.90;99.90;;;;;;4997529;28;20534;-70
2022/05/25 04:18:04;;;;;;;24.45;14.15;;;8.90;99.90;;;;;;4990277;28;20050;-71
2022/05/25 04:20:31;;;;;;;21.85;13.68;;;9.00;99.90;;;;;;4994181;28;20100;-71
2022/05/25 04:22:57;;;;;;;19.05;14.00;;;9.00;99.90;;;;;;4997628;28;20046;-71
2022/05/25 04:25:25;;;;;;;21.70;14.02;;;9.10;99.90;;;;;;4991792;28;20134;-71
2022/05/25 04:27:52;;;;;;;18.88;12.60;;;9.10;99.90;;;;;;4994240;28;20046;-71
2022/05/25 04:30:22;;;;;;;22.98;14.88;;;9.20;99.90;;;;;;4999063;28;20045;-71
2022/05/25 04:32:48;;;;;;;20.05;12.95;;;10.20;99.90;;;;;;4983192;28;20557;-70
2022/05/25 04:35:15;;;;;;;16.05;12.20;;;11.40;99.90;;;;;;4989589;28;20056;-71
2022/05/25 04:37:54;;;;;;;16.92;11.43;;;12.50;99.90;;;;;;5000454;28;20046;-70
2022/05/25 04:40:29;;;;;;;15.57;10.25;;;13.40;99.90;;;;;;4996218;28;20048;-71
2022/05/25 04:42:57;;;;;;;17.05;10.77;;;14.40;99.90;;;;;;4997919;28;20095;-71
2022/05/25 04:45:25;;;;;;;14.93;9.52;;;15.20;99.90;;;;;;4993519;28;20056;-71
2022/05/25 04:47:53;;;;;;;14.73;9.57;;;16.00;99.90;;;;;;4994916;28;20077;-71
2022/05/25 04:50:21;;;;;;;14.57;8.93;;;16.80;99.90;;;;;;5011916;28;20411;-71
2022/05/25 04:52:46;;;;;;;14.32;8.77;;;17.20;99.90;;;;;;4991620;28;20042;-71
2022/05/25 04:58:01;;;;;;;13.95;8.43;;;18.30;99.90;;;;;;4997155;28;20139;-71
2022/05/25 05:00:28;;;;;;;12.48;8.20;;;18.60;99.90;;;;;;5020743;28;20089;-71
2022/05/25 05:02:54;;;;;;;11.55;7.72;;;18.90;99.90;;;;;;4995345;28;20038;-71
2022/05/25 05:05:20;;;;;;;12.18;7.57;;;19.20;99.90;;;;;;4996569;28;20466;-71
2022/05/25 05:07:46;;;;;;;11.85;7.50;;;19.60;99.90;;;;;;5008039;28;20643;-71
2022/05/25 05:10:12;;;;;;;10.05;7.38;;;19.90;99.90;;;;;;4998008;28;20052;-71
2022/05/25 05:12:39;;;;;;;11.02;7.85;;;20.40;99.90;;;;;;4997791;28;20042;-71
2022/05/25 05:15:06;;;;;;;12.57;8.05;;;20.70;99.90;;;;;;4989204;28;20101;-71
2022/05/25 05:17:32;;;;;;;12.07;8.18;;;20.90;99.90;;;;;;4985016;28;20049;-72
2022/05/25 05:19:57;;;;;;;11.13;7.07;;;21.00;99.90;;;;;;4989198;28;20101;-72
2022/05/25 05:22:23;;;;;;;10.95;7.18;;;19.80;99.90;;;;;;4989805;28;20053;-70
2022/05/25 05:24:49;;;;;;;13.77;7.50;;;18.70;99.90;;;;;;4988976;28;20038;-70
2022/05/25 05:27:15;;;;;;;13.27;8.18;;;17.60;99.90;;;;;;4988605;28;20100;-70
2022/05/25 05:29:41;;;;;;;12.90;8.23;;;16.70;99.90;;;;;;4964366;28;20046;-71
2022/05/25 05:32:10;;;;;;;12.25;8.27;;;15.80;99.90;;;;;;4980922;28;20419;-70
2022/05/25 05:34:39;;;;;;;12.65;7.45;;;15.30;99.90;;;;;;4979389;28;20683;-70
2022/05/25 05:37:14;;;;;;;14.48;8.25;;;14.70;99.90;;;;;;4982466;28;20078;-71
2022/05/25 05:39:43;;;;;;;13.45;8.45;;;14.30;99.90;;;;;;5006358;28;20614;-71
2022/05/25 05:42:14;;;;;;;11.75;8.48;;;14.00;99.90;;;;;;4995509;28;20080;-72
2022/05/25 05:44:47;;;;;;;16.70;8.73;;;13.70;99.90;;;;;;4981979;28;20495;-70
2022/05/25 05:47:17;;;;;;;14.30;7.97;;;13.50;99.90;;;;;;4987779;28;20465;-68
2022/05/25 05:49:43;;;;;;;13.23;8.18;;;13.20;99.90;;;;;;4977120;28;20046;-71
2022/05/25 05:52:09;;;;;;;18.83;9.60;;;13.10;99.90;;;;;;4986370;28;20632;-71
2022/05/25 05:54:38;;;;;;;14.55;9.00;;;13.10;99.90;;;;;;5004247;28;20412;-71
2022/05/25 05:57:08;;;;;;;12.43;8.88;;;12.80;99.90;;;;;;4998043;28;20419;-71
2022/05/25 05:59:34;;;;;;;12.60;8.82;;;12.80;99.90;;;;;;5019184;28;20455;-70
2022/05/25 06:02:00;;;;;;;13.55;9.30;;;12.70;99.90;;;;;;4975378;28;20050;-70
2022/05/25 06:04:25;;;;;;;14.23;9.23;;;12.60;99.90;;;;;;5004107;28;20237;-70
2022/05/25 06:06:51;;;;;;;15.68;10.10;;;12.60;99.90;;;;;;4972338;28;20146;-71
2022/05/25 06:09:17;;;;;;;12.70;8.63;;;12.50;99.90;;;;;;4986998;28;20446;-71
2022/05/25 06:11:43;;;;;;;14.00;8.68;;;12.50;99.90;;;;;;4983687;28;20281;-70
2022/05/25 06:14:09;;;;;;;13.50;8.75;;;12.60;99.90;;;;;;4995755;28;20503;-71
2022/05/25 06:19:26;;;;;;;17.63;8.00;;;12.70;99.90;;;;;;4984256;28;20054;-71
2022/05/25 06:21:57;;;;;;;18.38;9.90;;;12.90;99.90;;;;;;4989629;28;20077;-71
2022/05/25 06:24:22;;;;;;;14.52;9.43;;;13.00;99.90;;;;;;5014621;28;20236;-71
2022/05/25 06:26:48;;;;;;;15.77;8.55;;;13.10;99.90;;;;;;5006162;28;20103;-71
2022/05/25 06:29:17;;;;;;;15.77;8.57;;;13.30;99.90;;;;;;4986965;28;20081;-71
2022/05/25 06:31:43;;;;;;;17.08;8.70;;;14.30;99.90;;;;;;4986946;28;20584;-71
2022/05/25 06:34:09;;;;;;;15.95;9.18;;;15.90;99.90;;;;;;5017535;28;20503;-71
2022/05/25 06:36:35;;;;;;;13.85;8.85;;;15.70;99.90;;;;;;5013231;28;20061;-71
2022/05/25 06:39:01;;;;;;;13.63;8.25;;;15.10;99.90;;;;;;5003893;28;20060;-71
2022/05/25 06:41:28;;;;;;;14.23;7.82;;;14.60;99.90;;;;;;5006356;28;20042;-71
2022/05/25 06:43:54;;;;;;;14.98;7.65;;;14.30;99.90;;;;;;4992637;28;20081;-70
2022/05/25 06:46:21;;;;;;;15.15;10.25;;;14.20;99.90;;;;;;5021194;28;20069;-71
2022/05/25 06:48:52;;;;;;;13.25;8.93;;;14.10;99.90;;;;;;4991954;28;20114;-71
2022/05/25 06:51:23;;;;;;;14.25;8.35;;;14.10;99.90;;;;;;4989132;28;20049;-72
2022/05/25 06:53:49;;;;;;;14.10;8.13;;;14.00;99.90;;;;;;4991011;28;20050;-71
2022/05/25 06:56:19;;;;;;;14.45;9.00;;;14.00;99.90;;;;;;5016186;28;20061;-71
2022/05/25 06:58:45;;;;;;;14.10;8.93;;;14.10;99.90;;;;;;5014624;28;20070;-71
2022/05/25 07:01:11;;;;;;;15.65;8.90;;;14.10;99.90;;;;;;5014464;28;20050;-71
2022/05/25 07:03:39;;;;;;;15.40;8.65;;;14.20;99.90;;;;;;4977414;28;20050;-71
2022/05/25 07:06:07;;;;;;;13.10;8.07;;;14.30;99.90;;;;;;4981235;28;20050;-69
2022/05/25 07:08:35;;;;;;;14.40;6.53;;;14.40;99.90;;;;;;5014923;28;20162;-69
2022/05/25 07:11:01;;;;;;;14.30;7.20;;;14.50;99.90;;;;;;4994175;28;20400;-69
2022/05/25 07:13:29;;;;;;;12.52;6.57;;;14.60;99.90;;;;;;4987723;28;20057;-69
2022/05/25 07:16:09;;;;;;;12.98;7.90;;;14.90;99.90;;;;;;5017881;28;20190;-69
2022/05/25 07:18:39;;;;;;;10.98;6.38;;;15.20;99.90;;;;;;4981443;28;20572;-69
2022/05/25 07:21:11;;;;;;;13.20;6.68;;;15.70;99.90;;;;;;4989251;28;20100;-69
2022/05/25 07:23:40;;;;;;;13.10;7.07;;;16.10;99.90;;;;;;4990106;28;20049;-68
2022/05/25 07:26:07;;;;;;;10.65;6.20;;;16.50;99.90;;;;;;4980407;28;20862;-70
2022/05/25 07:28:35;;;;;;;13.70;6.38;;;17.70;99.90;;;;;;5008332;28;20538;-69
2022/05/25 07:31:11;;;;;;;9.35;6.22;;;18.20;99.90;;;;;;4990745;28;20056;-69
2022/05/25 07:33:40;;;;;;;14.20;7.28;;;18.30;99.90;;;;;;4970383;28;20081;-70
2022/05/25 07:36:08;;;;;;;11.80;6.35;;;18.30;99.90;;;;;;4972377;28;20053;-68
2022/05/25 07:38:34;;;;;;;10.32;5.70;;;18.20;99.90;;;;;;5001458;28;20042;-69
2022/05/25 07:41:01;;;;;;;9.05;5.07;;;18.30;99.90;;;;;;4980216;28;20061;-69
2022/05/25 07:43:30;;;;;;;9.77;5.65;;;18.40;99.90;;;;;;4978759;28;20496;-70
2022/05/25 07:45:56;;;;;;;11.20;5.20;;;18.70;99.90;;;;;;4985632;28;20046;-70
2022/05/25 07:48:21;;;;;;;11.95;5.88;;;18.80;99.90;;;;;;4988150;28;20406;-69
2022/05/25 07:50:47;;;;;;;12.85;5.55;;;18.80;99.90;;;;;;4971206;28;20453;-70
2022/05/25 07:56:03;;;;;;;9.60;5.70;;;18.60;99.90;;;;;;4990077;28;20639;-69
2022/05/25 08:06:04;;;;;;;9.60;5.60;;;18.10;99.90;;;;;;4940295;28;20128;-69
2022/05/25 08:08:36;;;;;;;8.55;5.15;;;18.60;99.90;;;;;;4971851;28;20057;-69
2022/05/25 08:11:10;;;;;;;10.40;5.40;;;18.70;99.90;;;;;;4960474;28;20042;-67
2022/05/25 08:13:38;;;;;;;8.68;5.20;;;18.70;99.90;;;;;;4954108;28;21547;-69
2022/05/25 08:16:04;;;;;;;9.93;4.75;;;18.70;99.90;;;;;;4960492;28;20523;-69
2022/05/25 08:18:30;;;;;;;8.27;4.88;;;18.50;99.90;;;;;;4957553;28;20031;-68
2022/05/25 08:20:55;;;;;;;11.55;5.32;;;18.40;99.90;;;;;;4935946;28;20051;-69
2022/05/25 08:23:22;;;;;;;7.97;4.32;;;18.20;99.90;;;;;;4958288;28;20054;-68
2022/05/25 08:25:48;;;;;;;8.73;4.57;;;18.00;99.90;;;;;;4951303;28;20132;-69
2022/05/25 08:28:14;;;;;;;8.90;5.10;;;18.10;99.90;;;;;;4958336;28;20082;-69
2022/05/25 08:30:41;;;;;;;7.80;4.22;;;18.10;99.90;;;;;;4965610;28;20460;-69
2022/05/25 08:33:08;;;;;;;9.55;4.20;;;18.10;99.90;;;;;;4957647;28;20455;-69
2022/05/25 08:35:34;;;;;;;7.05;4.03;;;18.20;99.90;;;;;;4951723;28;20419;-68
2022/05/25 08:38:00;;;;;;;9.23;4.10;;;18.30;99.90;;;;;;4957610;28;20043;-69
2022/05/25 08:40:28;;;;;;;9.35;3.97;;;18.40;99.90;;;;;;4966342;28;20065;-68
2022/05/25 08:42:57;;;;;;;8.40;3.67;;;18.70;99.90;;;;;;4953873;28;20054;-69
2022/05/25 08:45:27;;;;;;;9.73;3.92;;;19.00;99.90;;;;;;4943798;28;20455;-69
2022/05/25 08:47:57;;;;;;;8.73;3.55;;;19.10;99.90;;;;;;4955312;28;20551;-69
2022/05/25 08:50:24;;;;;;;8.35;3.63;;;19.30;99.90;;;;;;4955348;28;20042;-69
2022/05/25 08:52:56;;;;;;;7.38;3.25;;;19.40;99.90;;;;;;4957948;28;20046;-70
2022/05/25 08:55:45;;;;;;;8.48;3.60;;;19.60;99.90;;;;;;4966492;28;20047;-70
2022/05/25 08:58:13;;;;;;;9.25;3.78;;;19.60;99.90;;;;;;4953871;28;20787;-70
2022/05/25 09:00:43;;;;;;;8.60;3.67;;;19.50;99.90;;;;;;4953494;28;20066;-69
2022/05/25 09:03:30;;;;;;;7.65;3.40;;;19.10;99.90;;;;;;4956901;28;20054;-70
2022/05/25 09:06:48;;;;;;;7.80;3.75;;;18.80;99.90;;;;;;4950436;28;20307;-69
2022/05/25 09:09:36;;;;;;;6.93;3.40;;;18.50;99.90;;;;;;4922923;28;20469;-70
2022/05/25 09:12:12;;;;;;;8.05;3.42;;;18.40;99.90;;;;;;4943441;28;20538;-70
2022/05/25 09:14:49;;;;;;;8.45;3.38;;;18.20;99.90;;;;;;4958443;28;20057;-70
2022/05/25 09:17:29;;;;;;;9.25;3.60;;;18.20;99.90;;;;;;4961823;28;20049;-70
2022/05/25 09:19:56;;;;;;;8.10;3.72;;;18.30;99.90;;;;;;4969127;28;20074;-70
2022/05/25 09:22:24;;;;;;;8.93;3.33;;;18.40;99.90;;;;;;4962896;28;20054;-70
2022/05/25 09:24:56;;;;;;;10.02;3.40;;;18.50;99.90;;;;;;4983687;28;20090;-70
2022/05/25 09:27:39;;;;;;;9.27;2.60;;;18.70;99.90;;;;;;4958170;28;20053;-70
2022/05/25 09:30:06;;;;;;;7.43;3.00;;;18.90;99.90;;;;;;4962818;28;20051;-71
2022/05/25 09:32:53;;;;;;;8.38;3.28;;;18.90;99.90;;;;;;4960238;28;20078;-70
2022/05/25 09:35:37;;;;;;;6.88;3.25;;;18.80;99.90;;;;;;4947223;28;20081;-71
2022/05/25 09:38:12;;;;;;;6.93;3.03;;;18.70;99.90;;;;;;4953039;28;20273;-70
2022/05/25 09:40:41;;;;;;;7.72;3.58;;;18.80;99.90;;;;;;4960546;28;20062;-70
2022/05/25 09:43:11;;;;;;;6.53;3.00;;;18.70;99.90;;;;;;4963616;28;20054;-70
2022/05/25 09:45:42;;;;;;;6.22;3.10;;;18.60;99.90;;;;;;4977632;28;20055;-70
2022/05/25 09:48:32;;;;;;;6.85;3.60;;;18.60;99.90;;;;;;4947746;28;20073;-70
2022/05/25 09:51:22;;;;;;;8.98;3.40;;;18.50;99.90;;;;;;4947279;28;20139;-70
2022/05/25 09:53:55;;;;;;;7.03;3.55;;;18.50;99.90;;;;;;4961106;28;20389;-68
2022/05/25 09:56:29;;;;;;;9.95;3.40;;;18.60;99.90;;;;;;4948118;28;20054;-69
2022/05/25 09:58:58;;;;;;;7.10;2.92;;;18.60;99.90;;;;;;4964570;28;20473;-70
2022/05/25 10:01:30;;;;;;;7.15;3.03;;;18.70;99.90;;;;;;4950178;28;20125;-70
2022/05/25 10:03:56;;;;;;;8.40;3.05;;;18.80;99.90;;;;;;4950428;28;20090;-70
2022/05/25 10:06:39;;;;;;;7.05;3.03;;;18.70;99.90;;;;;;4962229;28;20071;-70
2022/05/25 10:09:12;;;;;;;7.70;3.58;;;18.70;99.90;;;;;;4949546;28;20153;-70
2022/05/25 10:11:50;;;;;;;6.53;3.25;;;18.40;99.90;;;;;;4963445;28;20046;-70
2022/05/25 10:14:35;;;;;;;6.57;3.30;;;18.20;99.90;;;;;;4966940;28;20065;-70
2022/05/25 10:17:14;;;;;;;9.20;3.35;;;18.00;99.90;;;;;;4961719;28;20042;-70
2022/05/25 10:19:51;;;;;;;8.07;3.30;;;18.00;99.90;;;;;;4966312;28;20042;-70
2022/05/25 10:22:48;;;;;;;6.97;2.88;;;18.10;99.90;;;;;;4968646;28;20043;-71
2022/05/25 10:25:34;;;;;;;8.52;3.05;;;18.20;99.90;;;;;;4938362;28;20138;-70
2022/05/25 10:28:01;;;;;;;7.25;3.67;;;18.20;99.90;;;;;;4964004;28;20035;-71
2022/05/25 10:36:47;;;;;;;8.38;3.35;;;17.70;99.90;;;;;;4967189;28;20066;-70
2022/05/25 10:39:29;;;;;;;7.95;3.33;;;17.60;99.90;;;;;;4961108;28;20074;-70
2022/05/25 10:42:14;;;;;;;9.43;3.47;;;17.40;99.90;;;;;;4963663;28;20038;-70
2022/05/25 10:44:46;;;;;;;9.13;3.53;;;17.30;99.90;;;;;;4963617;28;20047;-70
2022/05/25 10:47:45;;;;;;;6.78;2.85;;;17.10;99.90;;;;;;4948619;28;20089;-70
2022/05/25 10:50:16;;;;;;;7.60;3.60;;;17.00;99.90;;;;;;4963449;28;20077;-69
2022/05/25 10:52:47;;;;;;;11.45;4.35;;;16.90;99.90;;;;;;4966867;28;20097;-71
2022/05/25 10:55:13;;;;;;;11.90;5.53;;;16.70;99.90;;;;;;4959007;28;20051;-70
2022/05/25 10:57:44;;;;;;;9.48;5.20;;;16.50;99.90;;;;;;4958851;28;20063;-70
2022/05/25 11:00:10;;;;;;;10.50;5.45;;;16.30;99.90;;;;;;4980556;28;20042;-71
2022/05/25 11:02:53;;;;;;;10.40;5.90;;;16.10;99.90;;;;;;4964024;28;20057;-70
2022/05/25 11:06:11;;;;;;;7.22;5.00;;;16.00;99.90;;;;;;4965642;28;20385;-69
2022/05/25 11:09:13;;;;;;;5.35;3.13;;;15.80;99.90;;;;;;4925932;28;20050;-70
2022/05/25 11:12:12;;;;;;;6.90;2.78;;;15.60;99.90;;;;;;4950635;28;20058;-70
2022/05/25 11:14:58;;;;;;;5.40;2.95;;;15.60;99.90;;;;;;4964502;28;20058;-70
2022/05/25 11:17:39;;;;;;;6.00;2.80;;;15.60;99.90;;;;;;4981378;28;20555;-70
2022/05/25 11:20:33;;;;;;;6.97;2.80;;;15.90;99.90;;;;;;4964620;28;20054;-70
2022/05/25 11:23:17;;;;;;;9.15;4.10;;;16.50;99.90;;;;;;4965470;28;20467;-70
2022/05/25 11:26:00;;;;;;;9.85;4.50;;;17.20;99.90;;;;;;4964259;28;20669;-71
2022/05/25 11:28:35;;;;;;;7.10;4.45;;;17.50;99.90;;;;;;4961636;28;20043;-70
2022/05/25 11:31:23;;;;;;;8.02;4.47;;;17.50;99.90;;;;;;4962211;28;20053;-71
2022/05/25 11:33:58;;;;;;;10.35;4.70;;;17.60;99.90;;;;;;4963322;28;20054;-71
2022/05/25 11:36:58;;;;;;;10.15;6.05;;;17.80;99.90;;;;;;4962741;28;20054;-71
2022/05/25 11:39:32;;;;;;;10.88;7.07;;;18.20;99.90;;;;;;4976905;28;20131;-70
2022/05/25 11:42:07;;;;;;;19.42;8.07;;;18.60;99.90;;;;;;4962899;28;20113;-71
2022/05/25 11:44:52;;;;;;;15.98;8.65;;;18.80;99.90;;;;;;4964943;28;20129;-71
2022/05/25 11:47:31;;;;;;;8.88;6.18;;;18.90;99.90;;;;;;4964538;28;20047;-70
2022/05/25 11:50:27;;;;;;;10.95;6.05;;;18.80;99.90;;;;;;4963608;28;20043;-71
2022/05/25 11:53:08;;;;;;;9.38;3.90;;;18.60;99.90;;;;;;4965071;28;20054;-70
2022/05/25 11:55:49;;;;;;;8.73;2.58;;;18.30;99.90;;;;;;4965340;28;20133;-70
2022/05/25 11:58:30;;;;;;;5.05;1.45;;;18.10;99.90;;;;;;4964725;28;20051;-70
2022/05/25 12:01:02;;;;;;;5.32;1.23;;;17.90;99.90;;;;;;4948250;28;20046;-69
2022/05/25 12:03:43;;;;;;;3.60;1.17;;;18.00;99.90;;;;;;4948876;28;20050;-68
2022/05/25 12:06:31;;;;;;;5.80;1.48;;;18.00;99.90;;;;;;4962692;28;20063;-68
2022/05/25 12:09:28;;;;;;;9.57;1.30;;;17.90;99.90;;;;;;4947677;28;20070;-68
2022/05/25 12:12:07;;;;;;;3.73;1.10;;;18.00;99.90;;;;;;4965004;28;20097;-70
2022/05/25 12:14:58;;;;;;;9.05;2.08;;;17.90;99.90;;;;;;4965483;28;20097;-70
2022/05/25 12:17:30;;;;;;;;;;;17.80;99.90;;;;;;4977827;28;20389;-69
2022/05/25 12:19:58;;;;;;;6.07;1.20;;;17.80;99.90;;;;;;4944539;28;19993;-70
2022/05/25 12:22:31;;;;;;;5.15;1.40;;;17.80;99.90;;;;;;4962488;28;20053;-69
2022/05/25 12:25:08;;;;;;;6.30;1.10;;;17.80;99.90;;;;;;4963851;28;20043;-69
2022/05/25 12:27:52;;;;;;;6.55;1.25;;;18.00;99.90;;;;;;4961015;28;20050;-73
2022/05/25 12:30:30;;;;;;;3.42;1.15;;;18.00;99.90;;;;;;4960859;28;20053;-69
2022/05/25 12:33:00;;;;;;;5.05;0.73;;;18.20;99.90;;;;;;4960055;28;20043;-69
2022/05/25 12:35:29;;;;;;;5.47;1.23;;;18.20;99.90;;;;;;4963865;28;20043;-68
2022/05/25 12:37:55;;;;;;;7.85;1.25;;;18.30;99.90;;;;;;4947602;28;20058;-70
2022/05/25 12:40:30;;;;;;;5.18;0.93;;;18.40;99.90;;;;;;4964966;28;20105;-70
2022/05/25 12:42:56;;;;;;;3.67;0.82;;;18.60;99.90;;;;;;4965744;28;20047;-70
2022/05/25 12:48:33;;;;;;;7.25;1.33;;;19.00;99.90;;;;;;4962502;28;20069;-70
2022/05/25 12:51:31;;;;;;;4.45;0.90;;;19.00;99.90;;;;;;4964507;28;20051;-70
2022/05/25 12:53:59;;;;;;;5.53;1.20;;;19.10;99.90;;;;;;4963524;28;20480;-70
2022/05/25 12:56:25;;;;;;;3.95;0.80;;;19.30;99.90;;;;;;4952145;28;20134;-70
2022/05/25 12:59:21;;;;;;;4.10;0.82;;;19.40;99.90;;;;;;4969071;28;20495;-70
2022/05/25 13:02:06;;;;;;;4.03;0.95;;;19.50;98.70;;;;;;4967210;28;20062;-71
2022/05/25 13:04:47;;;;;;;2.78;0.65;;;19.60;98.60;;;;;;4970060;28;20054;-70
2022/05/25 13:07:22;;;;;;;4.53;0.80;;;19.50;98.50;;;;;;4964586;28;20451;-70
2022/05/25 13:10:09;;;;;;;5.50;0.90;;;19.40;99.90;;;;;;4967912;28;20051;-70
2022/05/25 13:12:40;;;;;;;6.10;1.02;;;19.50;99.90;;;;;;4970114;28;20050;-70
2022/05/25 13:15:16;;;;;;;5.78;1.00;;;19.70;99.60;;;;;;4967991;28;20319;-69
2022/05/25 13:17:56;;;;;;;8.70;1.20;;;19.70;97.30;;;;;;4967282;28;21177;-69
2022/05/25 13:20:27;;;;;;;9.23;1.02;;;19.40;95.20;;;;;;4984399;28;20066;-68
2022/05/25 13:23:02;;;;;;;5.53;0.90;;;19.00;94.00;;;;;;4967557;28;20106;-70
2022/05/25 13:25:51;;;;;;;3.70;0.98;;;18.60;92.50;;;;;;4967425;28;20493;-69
2022/05/25 13:28:46;;;;;;;4.25;0.70;;;18.40;95.90;;;;;;4950850;28;20050;-69
2022/05/25 13:31:27;;;;;;;3.97;0.85;;;18.40;96.30;;;;;;4966454;28;20043;-68
2022/05/25 13:33:56;;;;;;;4.40;0.80;;;18.30;96.20;;;;;;4967733;28;20042;-69
2022/05/25 13:36:28;;;;;;;7.93;1.70;;;18.30;96.80;;;;;;4965383;28;20385;-70
2022/05/25 13:38:59;;;;;;;5.20;0.77;;;18.30;95.20;;;;;;4981019;28;20090;-68
2022/05/25 13:41:55;;;;;;;7.65;1.00;;;18.20;95.40;;;;;;4962208;28;20141;-68
2022/05/25 13:44:31;;;;;;;4.10;0.70;;;18.10;96.90;;;;;;4966199;28;20043;-68